Terminal Aerodrome Forecast
Issued by NWS

Home | Current Version | Previous Version | Text Only | Print | Product List | Glossary On
Versions: 1 2 3 4 5 6 7 8 9 10 11 12
000
FTUS45 KGJT 302334
TAFCNY
TAF
KCNY 302334Z 3100/3124 33004KT P6SM SKC
     FM310100 VRB03KT P6SM SKC
     FM311200 14004KT P6SM SCT250
     FM311800 22006KT P6SM BKN250=

USA.gov is the U.S. government's official web portal to all federal, state and local government web resources and services.